createdAt,value
2022-12-11T00:02:14.629Z,-0.89
2022-12-11T00:04:42.348Z,-0.99
2022-12-11T00:07:09.897Z,-0.88
2022-12-11T00:09:39.129Z,-0.85
2022-12-11T00:12:07.440Z,-0.86
2022-12-11T00:14:35.178Z,-0.91
2022-12-11T00:17:02.745Z,-1.02
2022-12-11T00:19:30.504Z,-0.95
2022-12-11T00:21:58.318Z,-0.92
2022-12-11T00:24:25.834Z,-0.73
2022-12-11T00:26:54.708Z,-0.75
2022-12-11T00:29:22.230Z,-0.46
2022-12-11T00:31:49.827Z,-0.61
2022-12-11T00:34:17.433Z,-0.75
2022-12-11T00:36:44.997Z,-0.69
2022-12-11T00:39:12.516Z,-0.57
2022-12-11T00:41:40.056Z,-0.75
2022-12-11T00:44:08.914Z,-1.00
2022-12-11T00:46:36.468Z,-1.02
2022-12-11T00:49:04.192Z,-1.09
2022-12-11T00:51:31.736Z,-1.17
2022-12-11T00:53:59.251Z,-1.05
2022-12-11T00:56:26.806Z,-0.73
2022-12-11T00:58:54.360Z,-0.81
2022-12-11T01:01:25.484Z,-1.24
2022-12-11T01:03:53.782Z,-1.08
2022-12-11T01:06:23.352Z,-1.09
2022-12-11T01:09:13.250Z,-0.83
2022-12-11T01:11:40.954Z,-0.99
2022-12-11T01:14:09.205Z,-1.00
2022-12-11T01:16:38.174Z,-1.00
2022-12-11T01:19:05.820Z,-1.17
2022-12-11T01:21:33.396Z,-1.05
2022-12-11T01:24:00.984Z,-1.06
2022-12-11T01:26:29.460Z,-0.88
2022-12-11T01:28:57.224Z,-0.81
2022-12-11T01:31:24.760Z,-1.08
2022-12-11T01:33:56.108Z,-1.40
2022-12-11T01:36:24.240Z,-1.57
2022-12-11T01:38:53.509Z,-1.64
2022-12-11T01:41:21.707Z,-1.65
2022-12-11T01:44:00.868Z,-1.57
2022-12-11T01:46:29.513Z,-1.40
2022-12-11T01:48:58.715Z,-1.67
2022-12-11T01:51:27.113Z,-1.71
2022-12-11T01:54:00.083Z,-1.81
2022-12-11T01:56:28.493Z,-1.86
2022-12-11T01:59:00.070Z,-1.89
2022-12-11T02:01:34.374Z,-1.87
2022-12-11T02:04:03.683Z,-1.84
2022-12-11T02:06:34.243Z,-1.56
2022-12-11T02:09:02.501Z,-1.63
2022-12-11T02:11:39.725Z,-1.64
2022-12-11T02:14:14.975Z,-1.82
2022-12-11T02:16:47.953Z,-1.82
2022-12-11T02:19:31.816Z,-1.88
2022-12-11T02:22:02.708Z,-1.90
2022-12-11T02:24:54.192Z,-1.96
2022-12-11T02:27:31.552Z,-1.93
2022-12-11T02:30:03.448Z,-1.97
2022-12-11T02:32:36.482Z,-1.83
2022-12-11T02:35:10.374Z,-1.51
2022-12-11T02:37:42.101Z,-1.73
2022-12-11T02:40:13.626Z,-1.57
2022-12-11T02:42:44.272Z,-1.35
2022-12-11T02:45:14.979Z,-1.36
2022-12-11T02:47:45.275Z,-1.64
2022-12-11T02:50:16.711Z,-1.58
2022-12-11T02:52:45.798Z,-2.15
2022-12-11T02:55:16.071Z,-1.92
2022-12-11T02:57:47.854Z,-1.64
2022-12-11T03:00:18.550Z,-1.99
2022-12-11T03:02:47.115Z,-2.06
2022-12-11T03:05:15.626Z,-2.04
2022-12-11T03:07:45.248Z,-1.72
2022-12-11T03:10:16.739Z,-1.85
2022-12-11T03:12:53.059Z,-1.75
2022-12-11T03:15:30.171Z,-1.55
2022-12-11T03:18:06.600Z,-2.06
2022-12-11T03:20:40.770Z,-2.07
2022-12-11T03:23:17.437Z,-2.07
2022-12-11T03:25:52.205Z,-2.22
2022-12-11T03:28:27.010Z,-2.44
2022-12-11T03:30:58.451Z,-2.55
2022-12-11T03:33:30.782Z,-2.48
2022-12-11T03:36:04.654Z,-2.45
2022-12-11T03:38:37.344Z,-2.37
2022-12-11T03:41:07.104Z,-2.01
2022-12-11T03:43:36.216Z,-1.75
2022-12-11T03:46:06.404Z,-0.79
2022-12-11T03:48:37.040Z,-0.40
2022-12-11T03:51:07.603Z,-0.61
2022-12-11T03:53:36.392Z,-0.92
2022-12-11T03:56:07.149Z,-1.55
2022-12-11T03:58:34.805Z,-1.87
2022-12-11T04:01:02.526Z,-2.16
2022-12-11T04:03:31.584Z,-2.14
2022-12-11T04:05:59.109Z,-2.45
2022-12-11T04:08:26.669Z,-2.60
2022-12-11T04:11:14.951Z,-2.62
2022-12-11T04:13:42.952Z,-2.75
2022-12-11T04:16:09.875Z,-2.61
2022-12-11T04:18:56.500Z,-2.65
2022-12-11T04:21:41.906Z,-2.55
2022-12-11T04:24:16.301Z,-2.60
2022-12-11T04:26:44.335Z,-2.45
2022-12-11T04:29:11.948Z,-2.26
2022-12-11T04:31:39.579Z,-2.37
2022-12-11T04:34:08.656Z,-2.45
2022-12-11T04:36:36.578Z,-2.48
2022-12-11T04:39:05.054Z,-2.18
2022-12-11T04:41:32.799Z,-2.50
2022-12-11T04:44:00.386Z,-2.66
2022-12-11T04:46:28.035Z,-2.49
2022-12-11T04:48:57.571Z,-2.74
2022-12-11T04:51:27.426Z,-2.82
2022-12-11T04:53:55.354Z,-2.80
2022-12-11T04:56:23.299Z,-2.92
2022-12-11T04:58:50.828Z,-3.07
2022-12-11T05:01:20.810Z,-3.04
2022-12-11T05:03:48.733Z,-3.13
2022-12-11T05:06:16.688Z,-3.09
2022-12-11T05:08:46.216Z,-2.99
2022-12-11T05:11:16.133Z,-3.02
2022-12-11T05:13:44.234Z,-2.94
2022-12-11T05:16:15.374Z,-2.79
2022-12-11T05:18:43.251Z,-2.80
2022-12-11T05:21:14.246Z,-2.74
2022-12-11T05:23:42.405Z,-2.70
2022-12-11T05:26:13.905Z,-2.67
2022-12-11T05:28:42.012Z,-2.74
2022-12-11T05:31:13.777Z,-2.60
2022-12-11T05:33:41.576Z,-2.79
2022-12-11T05:36:10.020Z,-2.70
2022-12-11T05:38:37.548Z,-2.83
2022-12-11T05:41:07.474Z,-2.69
2022-12-11T05:43:37.923Z,-2.70
2022-12-11T05:46:11.621Z,-2.43
2022-12-11T05:48:39.838Z,-2.31
2022-12-11T05:51:08.666Z,-2.24
2022-12-11T05:53:37.484Z,-2.16
2022-12-11T05:56:07.144Z,-2.38
2022-12-11T05:58:36.503Z,-2.52
2022-12-11T06:01:08.733Z,-2.73
2022-12-11T06:03:36.266Z,-2.96
2022-12-11T06:06:04.440Z,-2.94
2022-12-11T06:08:32.348Z,-3.11
2022-12-11T06:11:00.464Z,-3.04
2022-12-11T06:13:28.455Z,-3.13
2022-12-11T06:16:01.359Z,-3.07
2022-12-11T06:18:28.906Z,-3.30
2022-12-11T06:20:56.455Z,-3.42
2022-12-11T06:23:24.053Z,-3.43
2022-12-11T06:25:51.592Z,-3.40
2022-12-11T06:28:19.101Z,-3.26
2022-12-11T06:30:46.644Z,-3.32
2022-12-11T06:33:15.532Z,-3.27
2022-12-11T06:35:43.058Z,-3.28
2022-12-11T06:38:10.944Z,-3.11
2022-12-11T06:40:38.573Z,-3.11
2022-12-11T06:43:06.182Z,-3.20
2022-12-11T06:45:33.826Z,-3.17
2022-12-11T06:48:01.478Z,-3.06
2022-12-11T06:50:30.394Z,-3.13
2022-12-11T06:52:58.048Z,-3.17
2022-12-11T06:55:25.592Z,-2.98
2022-12-11T06:57:53.119Z,-2.86
2022-12-11T07:00:20.903Z,-2.82
2022-12-11T07:02:48.407Z,-2.92
2022-12-11T07:05:16.104Z,-2.82
2022-12-11T07:07:45.097Z,-2.77
2022-12-11T07:10:12.835Z,-2.80
2022-12-11T07:12:40.461Z,-2.83
2022-12-11T07:15:09.308Z,-2.65
2022-12-11T07:17:37.028Z,-2.60
2022-12-11T07:20:05.373Z,-2.70
2022-12-11T07:22:33.009Z,-2.64
2022-12-11T07:25:01.865Z,-2.68
2022-12-11T07:27:30.450Z,-2.63
2022-12-11T07:29:57.964Z,-2.84
2022-12-11T07:32:25.580Z,-2.73
2022-12-11T07:34:53.242Z,-2.67
2022-12-11T07:37:20.792Z,-2.60
2022-12-11T07:39:48.934Z,-2.40
2022-12-11T07:42:17.912Z,-2.40
2022-12-11T07:44:45.420Z,-2.49
2022-12-11T07:47:12.955Z,-2.40
2022-12-11T07:49:40.475Z,-2.49
2022-12-11T07:52:08.037Z,-2.44
2022-12-11T07:54:35.547Z,-2.32
2022-12-11T07:57:03.107Z,-2.37
2022-12-11T07:59:32.140Z,-2.19
2022-12-11T08:01:59.783Z,-2.07
2022-12-11T08:04:27.308Z,-1.70
2022-12-11T08:06:54.809Z,-1.44
2022-12-11T08:09:23.079Z,-1.81
2022-12-11T08:11:51.307Z,-1.98
2022-12-11T08:14:19.422Z,-1.86
2022-12-11T08:16:48.819Z,-2.05
2022-12-11T08:19:16.914Z,-2.22
2022-12-11T08:21:45.007Z,-2.24
2022-12-11T08:24:12.524Z,-2.18
2022-12-11T08:26:40.467Z,-2.01
2022-12-11T08:29:07.990Z,-1.82
2022-12-11T08:31:35.597Z,-1.79
2022-12-11T08:34:04.560Z,-1.87
2022-12-11T08:36:32.313Z,-1.77
2022-12-11T08:38:59.884Z,-1.45
2022-12-11T08:41:29.108Z,-1.45
2022-12-11T08:43:57.757Z,-1.50
2022-12-11T08:46:28.381Z,-1.35
2022-12-11T08:48:56.678Z,-1.28
2022-12-11T08:51:27.070Z,-1.31
2022-12-11T08:53:56.489Z,-1.34
2022-12-11T08:56:24.626Z,-1.15
2022-12-11T08:58:53.027Z,-0.67
2022-12-11T09:01:23.085Z,-0.38
2022-12-11T09:03:51.941Z,-0.14
2022-12-11T09:06:21.848Z,-0.04
2022-12-11T09:08:53.173Z,0.13
2022-12-11T09:11:23.500Z,0.67
2022-12-11T09:13:51.409Z,0.31
2022-12-11T09:16:21.603Z,0.30
2022-12-11T09:18:51.144Z,-0.89
2022-12-11T09:21:21.270Z,-1.10
2022-12-11T09:23:50.986Z,-1.02
2022-12-11T09:26:20.058Z,-0.75
2022-12-11T09:28:48.054Z,-0.10
2022-12-11T09:31:17.269Z,-0.43
2022-12-11T09:33:45.194Z,-0.89
2022-12-11T09:36:13.069Z,-1.06
2022-12-11T09:38:40.763Z,-0.91
2022-12-11T09:41:33.862Z,-0.93
2022-12-11T09:44:06.627Z,-0.78
2022-12-11T09:46:35.883Z,-0.31
2022-12-11T09:49:06.192Z,0.27
2022-12-11T09:51:40.396Z,0.08
2022-12-11T09:54:08.049Z,-0.06
2022-12-11T09:56:43.619Z,-0.05
2022-12-11T09:59:23.456Z,0.08
2022-12-11T10:01:55.605Z,-0.28
2022-12-11T10:04:43.816Z,0.20
2022-12-11T10:07:16.962Z,0.65
2022-12-11T10:09:51.213Z,1.14
2022-12-11T10:12:34.444Z,1.03
2022-12-11T10:15:17.663Z,0.79
2022-12-11T10:17:46.420Z,1.01
2022-12-11T10:20:23.284Z,0.59
2022-12-11T10:22:51.887Z,0.54
2022-12-11T10:25:25.357Z,0.32
2022-12-11T10:27:54.627Z,0.43
2022-12-11T10:30:25.071Z,-0.13
2022-12-11T10:32:58.202Z,-0.70
2022-12-11T10:35:37.088Z,-0.93
2022-12-11T10:38:14.831Z,-0.74
2022-12-11T10:40:44.992Z,-0.58
2022-12-11T10:43:13.920Z,-0.51
2022-12-11T10:45:41.492Z,-0.69
2022-12-11T10:48:13.156Z,-0.73
2022-12-11T10:50:41.125Z,-1.05
2022-12-11T10:53:21.462Z,-0.92
2022-12-11T10:55:50.006Z,-0.95
2022-12-11T10:58:22.571Z,-1.11
2022-12-11T11:01:03.516Z,-0.93
2022-12-11T11:03:31.144Z,-1.03
2022-12-11T11:06:08.075Z,-1.18
2022-12-11T11:08:42.453Z,-1.42
2022-12-11T11:11:22.256Z,-1.35
2022-12-11T11:13:51.154Z,-0.90
2022-12-11T11:16:21.982Z,-0.47
2022-12-11T11:18:55.254Z,-0.57
2022-12-11T11:21:26.192Z,-0.60
2022-12-11T11:23:55.183Z,-0.87
2022-12-11T11:26:23.595Z,-0.30
2022-12-11T11:28:55.632Z,-0.15
2022-12-11T11:31:33.784Z,-0.47
2022-12-11T11:34:04.174Z,-0.57
2022-12-11T11:36:34.196Z,-0.81
2022-12-11T11:39:19.448Z,-0.91
2022-12-11T11:41:53.131Z,-0.37
2022-12-11T11:44:26.390Z,-0.54
2022-12-11T11:47:00.116Z,0.16
2022-12-11T11:49:45.483Z,0.76
2022-12-11T11:52:16.884Z,0.78
2022-12-11T11:54:51.522Z,0.79
2022-12-11T11:57:25.812Z,0.62
2022-12-11T11:59:59.139Z,0.11
2022-12-11T12:02:26.757Z,0.46
2022-12-11T12:04:54.670Z,0.71
2022-12-11T12:07:33.535Z,1.01
2022-12-11T12:10:11.491Z,1.47
2022-12-11T12:12:47.918Z,2.10
2022-12-11T12:15:25.483Z,2.34
2022-12-11T12:17:56.328Z,3.21
2022-12-11T12:20:35.938Z,3.83
2022-12-11T12:23:27.964Z,3.43
2022-12-11T12:26:04.202Z,2.36
2022-12-11T12:28:39.292Z,1.63
2022-12-11T12:31:22.623Z,1.98
2022-12-11T12:34:01.662Z,1.26
2022-12-11T12:36:39.650Z,1.91
2022-12-11T12:39:21.631Z,2.38
2022-12-11T12:42:01.375Z,1.17
2022-12-11T12:44:42.908Z,1.99
2022-12-11T12:47:15.282Z,1.86
2022-12-11T12:49:46.508Z,1.65
2022-12-11T12:52:17.735Z,0.93
2022-12-11T12:55:03.625Z,0.54
2022-12-11T12:57:32.020Z,0.30
2022-12-11T12:59:59.537Z,0.15
2022-12-11T13:02:28.679Z,0.02
2022-12-11T13:04:59.690Z,0.17
2022-12-11T13:07:30.664Z,0.55
2022-12-11T13:10:01.330Z,0.74
2022-12-11T13:12:40.689Z,0.29
2022-12-11T13:15:24.700Z,0.92
2022-12-11T13:17:53.978Z,1.17
2022-12-11T13:20:23.955Z,0.30
2022-12-11T13:22:57.885Z,-0.18
2022-12-11T13:25:29.408Z,-0.64
2022-12-11T13:28:07.598Z,-0.39
2022-12-11T13:30:35.536Z,-0.37
2022-12-11T13:33:07.250Z,-0.40
2022-12-11T13:35:36.270Z,-0.54
2022-12-11T13:38:09.211Z,-1.13
2022-12-11T13:40:43.063Z,-1.25
2022-12-11T13:43:19.050Z,-1.31
2022-12-11T13:45:50.443Z,-1.22
2022-12-11T13:48:24.232Z,-1.20
2022-12-11T13:50:53.243Z,-0.93
2022-12-11T13:53:22.443Z,-1.07
2022-12-11T13:55:57.756Z,-1.19
2022-12-11T13:58:25.748Z,-1.30
2022-12-11T14:01:07.475Z,-0.95
2022-12-11T14:03:36.779Z,-1.26
2022-12-11T14:06:05.130Z,-1.27
2022-12-11T14:08:37.148Z,-1.03
2022-12-11T14:11:06.100Z,-0.88
2022-12-11T14:13:36.350Z,-1.17
2022-12-11T14:16:04.987Z,-1.09
2022-12-11T14:18:36.104Z,-0.81
2022-12-11T14:21:07.286Z,-0.95
2022-12-11T14:23:36.218Z,-1.00
2022-12-11T14:26:14.392Z,-1.11
2022-12-11T14:28:43.891Z,-1.30
2022-12-11T14:31:17.018Z,-1.34
2022-12-11T14:33:49.029Z,-1.33
2022-12-11T14:36:18.564Z,-1.17
2022-12-11T14:38:49.226Z,-1.28
2022-12-11T14:41:20.522Z,-1.24
2022-12-11T14:43:51.062Z,-0.97
2022-12-11T14:46:23.502Z,-1.16
2022-12-11T14:49:00.743Z,-1.41
2022-12-11T14:51:35.834Z,-1.42
2022-12-11T14:54:05.095Z,-1.22
2022-12-11T14:56:33.368Z,-1.26
2022-12-11T14:59:03.636Z,-1.18
2022-12-11T15:01:33.627Z,-0.74
2022-12-11T15:04:06.932Z,-0.51
2022-12-11T15:06:43.641Z,-0.51
2022-12-11T15:09:19.246Z,-1.02
2022-12-11T15:11:47.846Z,-0.54
2022-12-11T15:14:17.759Z,-0.20
2022-12-11T15:16:45.865Z,-0.55
2022-12-11T15:19:22.000Z,-0.54
2022-12-11T15:21:52.034Z,-1.30
2022-12-11T15:24:26.990Z,-1.35
2022-12-11T15:26:59.557Z,-1.22
2022-12-11T15:29:33.614Z,-1.13
2022-12-11T15:32:03.398Z,-0.96
2022-12-11T15:34:35.546Z,-0.80
2022-12-11T15:37:04.431Z,-1.12
2022-12-11T15:39:31.947Z,-1.25
2022-12-11T15:41:59.531Z,-1.44
2022-12-11T15:44:27.082Z,-1.10
2022-12-11T15:46:54.629Z,-1.11
2022-12-11T15:49:24.145Z,-1.48
2022-12-11T15:51:52.613Z,-1.65
2022-12-11T15:54:21.489Z,-1.66
2022-12-11T15:56:49.012Z,-1.65
2022-12-11T15:59:22.827Z,-1.48
2022-12-11T16:01:50.392Z,-1.17
2022-12-11T16:04:17.931Z,-1.12
2022-12-11T16:06:46.845Z,-1.67
2022-12-11T16:09:14.378Z,-1.97
2022-12-11T16:11:43.297Z,-1.98
2022-12-11T16:14:10.805Z,-2.07
2022-12-11T16:16:38.340Z,-2.35
2022-12-11T16:19:05.874Z,-2.41
2022-12-11T16:21:33.419Z,-2.45
2022-12-11T16:24:00.933Z,-2.22
2022-12-11T16:26:28.481Z,-2.30
2022-12-11T16:28:57.323Z,-2.18
2022-12-11T16:31:24.960Z,-2.03
2022-12-11T16:33:52.512Z,-2.00
2022-12-11T16:36:21.299Z,-2.19
2022-12-11T16:38:54.006Z,-2.05
2022-12-11T16:41:22.837Z,-1.80
2022-12-11T16:43:50.513Z,-1.33
2022-12-11T16:46:20.164Z,-1.19
2022-12-11T16:48:48.056Z,-1.55
2022-12-11T16:51:15.998Z,-1.55
2022-12-11T16:53:43.527Z,-1.76
2022-12-11T16:56:11.089Z,-2.16
2022-12-11T16:58:40.458Z,-2.26
2022-12-11T17:01:12.047Z,-1.94
2022-12-11T17:03:42.904Z,-1.74
2022-12-11T17:06:12.153Z,-2.05
2022-12-11T17:08:40.091Z,-1.99
2022-12-11T17:11:08.682Z,-1.99
2022-12-11T17:13:36.508Z,-2.14
2022-12-11T17:16:05.895Z,-2.17
2022-12-11T17:18:33.917Z,-1.89
2022-12-11T17:21:06.663Z,-2.07
2022-12-11T17:23:34.305Z,-2.15
2022-12-11T17:26:02.529Z,-2.13
2022-12-11T17:28:30.469Z,-2.13
2022-12-11T17:30:58.517Z,-2.08
2022-12-11T17:33:26.062Z,-2.16
2022-12-11T17:35:53.704Z,-2.27
2022-12-11T17:38:22.562Z,-2.37
2022-12-11T17:40:50.140Z,-2.31
2022-12-11T17:43:17.726Z,-2.24
2022-12-11T17:45:46.959Z,-2.24
2022-12-11T17:48:15.674Z,-2.41
2022-12-11T17:50:44.559Z,-2.52
2022-12-11T17:53:12.872Z,-2.54
2022-12-11T17:55:43.340Z,-2.36
2022-12-11T17:58:11.512Z,-2.29
2022-12-11T18:00:39.967Z,-1.99
2022-12-11T18:03:07.492Z,-2.28
2022-12-11T18:05:35.232Z,-2.55
2022-12-11T18:08:02.874Z,-2.57
2022-12-11T18:10:30.394Z,-2.53
2022-12-11T18:12:59.252Z,-2.51
2022-12-11T18:15:27.066Z,-2.53
2022-12-11T18:17:57.748Z,-2.46
2022-12-11T18:20:25.797Z,-2.26
2022-12-11T18:22:53.368Z,-2.41
2022-12-11T18:25:21.094Z,-2.12
2022-12-11T18:27:48.732Z,-2.38
2022-12-11T18:30:17.931Z,-2.22
2022-12-11T18:32:45.930Z,-2.36
2022-12-11T18:35:14.255Z,-2.35
2022-12-11T18:37:42.236Z,-2.22
2022-12-11T18:40:11.828Z,-2.27
2022-12-11T18:42:39.603Z,-2.39
2022-12-11T18:45:08.060Z,-2.53
2022-12-11T18:47:37.304Z,-2.47
2022-12-11T18:50:08.134Z,-2.63
2022-12-11T18:52:36.347Z,-2.65
2022-12-11T18:55:05.569Z,-2.56
2022-12-11T18:57:33.280Z,-2.60
2022-12-11T19:00:07.240Z,-2.36
2022-12-11T19:02:35.210Z,-2.68
2022-12-11T19:05:04.502Z,-2.37
2022-12-11T19:07:32.034Z,-2.42
2022-12-11T19:09:59.561Z,-2.60
2022-12-11T19:12:27.127Z,-2.58
2022-12-11T19:14:54.694Z,-2.62
2022-12-11T19:17:22.219Z,-2.64
2022-12-11T19:19:50.294Z,-2.69
2022-12-11T19:22:19.182Z,-2.65
2022-12-11T19:24:46.699Z,-2.55
2022-12-11T19:27:14.298Z,-2.84
2022-12-11T19:29:41.998Z,-2.77
2022-12-11T19:32:09.611Z,-2.97
2022-12-11T19:34:38.379Z,-2.87
2022-12-11T19:37:06.077Z,-2.71
2022-12-11T19:39:35.307Z,-2.73
2022-12-11T19:42:02.857Z,-2.78
2022-12-11T19:44:30.404Z,-2.84
2022-12-11T19:46:58.050Z,-2.81
2022-12-11T19:49:25.637Z,-2.89
2022-12-11T19:51:53.234Z,-2.78
2022-12-11T19:54:20.770Z,-2.91
2022-12-11T19:56:49.654Z,-2.79
2022-12-11T19:59:18.036Z,-2.75
2022-12-11T20:01:47.929Z,-2.35
2022-12-11T20:04:17.683Z,-2.54
2022-12-11T20:06:47.365Z,-2.69
2022-12-11T20:09:15.688Z,-2.72
2022-12-11T20:11:45.391Z,-2.67
2022-12-11T20:14:22.430Z,-2.52
2022-12-11T20:17:10.496Z,-2.67
2022-12-11T20:19:38.931Z,-2.57
2022-12-11T20:22:06.796Z,-2.51
2022-12-11T20:24:34.523Z,-2.62
2022-12-11T20:27:02.071Z,-2.63
2022-12-11T20:29:31.007Z,-2.93
2022-12-11T20:31:59.731Z,-2.62
2022-12-11T20:34:27.563Z,-2.69
2022-12-11T20:36:56.194Z,-2.79
2022-12-11T20:39:23.821Z,-2.52
2022-12-11T20:41:51.423Z,-2.68
2022-12-11T20:44:19.988Z,-2.70
2022-12-11T20:46:48.881Z,-2.79
2022-12-11T20:49:16.484Z,-2.75
2022-12-11T20:51:44.044Z,-2.81
2022-12-11T20:54:11.662Z,-2.75
2022-12-11T20:56:39.423Z,-2.47
2022-12-11T20:59:06.976Z,-2.45
2022-12-11T21:01:35.077Z,-2.33
2022-12-11T21:04:04.193Z,-2.43
2022-12-11T21:06:34.086Z,-2.62
2022-12-11T21:09:07.403Z,-2.66
2022-12-11T21:11:35.223Z,-2.63
2022-12-11T21:14:02.738Z,-2.34
2022-12-11T21:16:30.688Z,-2.54
2022-12-11T21:18:59.157Z,-2.43
2022-12-11T21:21:28.106Z,-2.57
2022-12-11T21:23:55.683Z,-2.28
2022-12-11T21:26:23.239Z,-2.52
2022-12-11T21:28:51.310Z,-2.52
2022-12-11T21:31:20.337Z,-2.41
2022-12-11T21:33:48.756Z,-2.53
2022-12-11T21:36:17.013Z,-2.49
2022-12-11T21:38:47.524Z,-2.34
2022-12-11T21:41:17.850Z,-2.37
2022-12-11T21:44:40.889Z,-2.68
2022-12-11T21:46:34.941Z,-1.86
2022-12-11T21:49:02.535Z,-1.96
2022-12-11T21:51:36.924Z,-1.59
2022-12-11T21:54:10.176Z,-1.73
2022-12-11T21:56:37.731Z,-2.00
2022-12-11T21:59:05.756Z,-2.02
2022-12-11T22:01:38.050Z,-1.82
2022-12-11T22:04:06.475Z,-1.60
2022-12-11T22:06:34.492Z,-1.37
2022-12-11T22:09:02.238Z,-1.04
2022-12-11T22:11:33.424Z,-1.34
2022-12-11T22:14:01.243Z,-0.63
2022-12-11T22:16:29.374Z,-0.44
2022-12-11T22:18:57.062Z,-0.75
2022-12-11T22:21:25.569Z,-0.97
2022-12-11T22:23:53.143Z,-0.56
2022-12-11T22:26:23.102Z,-0.19
2022-12-11T22:28:52.089Z,-0.90
2022-12-11T22:31:22.482Z,-0.97
2022-12-11T22:33:51.139Z,-1.33
2022-12-11T22:36:18.931Z,-1.10
2022-12-11T22:38:47.059Z,-1.30
2022-12-11T22:41:24.525Z,-1.11
2022-12-11T22:43:54.008Z,-1.66
2022-12-11T22:46:23.944Z,-1.92
2022-12-11T22:48:52.029Z,-1.80
2022-12-11T22:51:19.632Z,-2.00
2022-12-11T22:53:47.173Z,-1.97
2022-12-11T22:56:15.179Z,-2.14
2022-12-11T22:58:43.134Z,-1.92
2022-12-11T23:01:14.279Z,-2.09
2022-12-11T23:03:42.378Z,-1.71
2022-12-11T23:06:13.316Z,-1.66
2022-12-11T23:08:41.575Z,-1.42
2022-12-11T23:11:12.931Z,-1.33
2022-12-11T23:13:41.326Z,-1.19
2022-12-11T23:16:09.352Z,-0.95
2022-12-11T23:18:38.562Z,-1.28
2022-12-11T23:21:06.311Z,-1.31
2022-12-11T23:23:33.950Z,-1.34
2022-12-11T23:26:01.649Z,-1.05
2022-12-11T23:28:29.246Z,-1.27
2022-12-11T23:30:56.832Z,-1.24
2022-12-11T23:33:24.411Z,-1.07
2022-12-11T23:35:53.267Z,-0.69
2022-12-11T23:38:20.781Z,-1.11
2022-12-11T23:40:48.366Z,-1.21
2022-12-11T23:43:16.038Z,-1.74
2022-12-11T23:45:44.225Z,-2.17
2022-12-11T23:48:12.577Z,-2.32
2022-12-11T23:50:40.903Z,-2.29
2022-12-11T23:53:09.844Z,-2.21
2022-12-11T23:55:39.671Z,-2.35
2022-12-11T23:58:07.351Z,-2.47
